map of YQF home
YQF - Airport
Location
City:  Red Deer, Alberta, Canada
Name:Red Deer Regional Airport
ICAO:CYQF
IATA:YQF

Details
Type:Airport (Airfield)
Use:Public/Civil
Latitude:5210'56"N (52.182222)
Longitude:11353'40"W (-113.894443)
Elevation:2968 ft (905 m)
Variation:14.22E (WMM2015v2 magnetic declination)
-0.10 annual change
Runways:2
Longest:5528 ft (1685 m), paved

Time
Time Zone:UTC-7 (DST-6)
Local Time:

Weather
METAR:CYQF 041400Z 02003KT 010V070 12SM -SN FEW010 OVC055 M28/M32 A3007 RMK SC1SC8 SC TR SLP292
TAF:CYQF 041138Z 0412/0424 VRB03KT P6SM -SN OVC060
TEMPO 0412/0424 5SM -SN
RMK NXT FCST BY 041800Z

Related Locations
Nearby:
Farthest:YWKS: 10605 mi / 17067 km
Wilkins Runway (Casey), Upper Peterson Glacier, AQ

Find:

   beyond  
but within

Other Information
Maps:
NOTAMs:
Links:
Sources:

  
  • flag of Canada
  • flag of Alberta
  

Airport Diagram

Airport diagram for YQF

Airport diagram PDF

Sectional Chart

Flight Planning
at skyvector.com

Satellite Image

Google Maps Satellite view

 

Copyright © 2004-2019 Karl L. Swartz. All rights reserved.
The Great Circle Mapper name and logo are trademarks of the Great Circle Mapper.
All other trademarks mentioned herein belong to their respective owners.
Please see credits for attibutions and further copyright information.

  Follow gcmap on Facebook Follow gcmap on Twitter GCmap on LinkedIn

hCard Microformat

Geo Microformat